createdAt,value
2024-03-23T00:05:23.527Z,89.56
2024-03-23T00:10:51.811Z,90.00
2024-03-23T00:16:01.731Z,90.35
2024-03-23T00:21:13.998Z,90.74
2024-03-23T00:26:59.311Z,90.96
2024-03-23T00:32:04.123Z,91.29
2024-03-23T00:37:37.176Z,91.58
2024-03-23T00:43:02.760Z,91.95
2024-03-23T00:48:47.032Z,92.26
2024-03-23T00:54:39.182Z,92.56
2024-03-23T00:59:51.079Z,92.88
2024-03-23T01:05:14.740Z,93.18
2024-03-23T01:10:33.376Z,93.58
2024-03-23T01:15:42.675Z,93.57
2024-03-23T01:20:57.822Z,93.90
2024-03-23T01:26:49.753Z,93.99
2024-03-23T01:32:48.956Z,94.29
2024-03-23T01:39:03.066Z,94.60
2024-03-23T01:45:27.201Z,94.84
2024-03-23T01:51:41.406Z,95.65
2024-03-23T01:58:10.484Z,95.73
2024-03-23T02:04:34.237Z,95.66
2024-03-23T02:10:58.951Z,95.44
2024-03-23T02:17:06.706Z,95.64
2024-03-23T02:23:21.782Z,95.91
2024-03-23T02:29:28.511Z,96.15
2024-03-23T02:35:52.331Z,96.29
2024-03-23T02:41:56.921Z,96.16
2024-03-23T02:47:59.721Z,96.12
2024-03-23T02:53:54.249Z,96.29
2024-03-23T03:00:18.833Z,96.28
2024-03-23T03:06:43.622Z,96.46
2024-03-23T03:13:15.594Z,96.60
2024-03-23T03:19:29.519Z,96.52
2024-03-23T03:25:55.059Z,96.63
2024-03-23T03:32:00.908Z,97.06
2024-03-23T03:38:23.534Z,97.17
2024-03-23T03:44:48.514Z,98.06
2024-03-23T03:51:13.570Z,98.02
2024-03-23T03:57:21.135Z,98.11
2024-03-23T04:03:45.581Z,98.51
2024-03-23T04:10:02.068Z,98.96
2024-03-23T04:16:10.817Z,98.72
2024-03-23T04:22:35.007Z,98.63
2024-03-23T04:28:59.244Z,98.43
2024-03-23T04:35:05.738Z,98.61
2024-03-23T04:41:33.107Z,98.75
2024-03-23T04:47:37.901Z,99.01
2024-03-23T04:53:53.677Z,99.26
2024-03-23T04:59:47.995Z,99.63
2024-03-23T05:06:12.055Z,100.00
2024-03-23T05:12:37.566Z,99.94
2024-03-23T05:18:56.859Z,100.00
2024-03-23T05:25:04.831Z,99.90
2024-03-23T05:31:15.751Z,99.81
2024-03-23T05:37:35.533Z,100.00
2024-03-23T05:44:01.864Z,100.00
2024-03-23T05:50:29.252Z,100.00
2024-03-23T05:56:57.830Z,100.00
2024-03-23T06:03:15.769Z,100.00
2024-03-23T06:09:16.247Z,100.00
2024-03-23T06:15:23.629Z,100.00
2024-03-23T06:21:49.444Z,100.00
2024-03-23T06:28:07.421Z,100.00
2024-03-23T06:34:23.261Z,100.00
2024-03-23T06:40:48.007Z,100.00
2024-03-23T06:46:53.329Z,100.00
2024-03-23T06:52:54.391Z,100.00
2024-03-23T06:59:10.105Z,100.00
2024-03-23T07:05:03.604Z,100.00
2024-03-23T07:11:29.262Z,100.00
2024-03-23T07:17:56.166Z,100.00
2024-03-23T07:24:03.075Z,100.00
2024-03-23T07:30:19.499Z,100.00
2024-03-23T07:36:13.440Z,99.86
2024-03-23T07:41:20.863Z,99.08
2024-03-23T07:46:44.338Z,98.66
2024-03-23T07:52:39.802Z,98.50
2024-03-23T07:58:54.394Z,97.85
2024-03-23T08:04:46.000Z,96.39
2024-03-23T08:11:10.288Z,93.94
2024-03-23T08:17:26.613Z,92.41
2024-03-23T08:23:51.552Z,91.93
2024-03-23T08:37:06.669Z,91.52
2024-03-23T08:43:15.566Z,90.65
2024-03-23T08:49:23.966Z,88.10
2024-03-23T08:55:19.037Z,86.99
2024-03-23T09:00:46.839Z,84.25
2024-03-23T09:06:56.292Z,81.67
2024-03-23T09:13:10.926Z,83.23
2024-03-23T09:19:20.065Z,82.27
2024-03-23T09:25:21.252Z,81.99
2024-03-23T09:31:20.912Z,82.97
2024-03-23T09:36:49.012Z,81.83
2024-03-23T09:42:54.921Z,82.57
2024-03-23T09:48:51.133Z,82.05
2024-03-23T09:54:57.256Z,82.54
2024-03-23T10:00:47.022Z,81.65
2024-03-23T10:06:23.202Z,81.98
2024-03-23T10:11:50.812Z,82.18
2024-03-23T10:17:36.018Z,81.98
2024-03-23T10:23:41.105Z,82.01
2024-03-23T10:29:35.296Z,81.22
2024-03-23T10:35:42.737Z,78.70
2024-03-23T10:42:01.281Z,79.64
2024-03-23T10:47:47.701Z,77.43
2024-03-23T10:53:02.116Z,76.72
2024-03-23T10:58:36.877Z,75.29
2024-03-23T11:03:48.662Z,75.33
2024-03-23T11:09:46.039Z,75.41
2024-03-23T11:16:02.958Z,75.13
2024-03-23T11:22:35.099Z,74.99
2024-03-23T11:28:50.509Z,73.78
2024-03-23T11:34:24.132Z,72.32
2024-03-23T11:40:41.346Z,72.29
2024-03-23T11:46:11.183Z,70.91
2024-03-23T11:51:31.352Z,67.71
2024-03-23T11:56:50.633Z,67.26
2024-03-23T12:02:22.908Z,66.60
2024-03-23T12:08:37.911Z,65.02
2024-03-23T12:14:32.912Z,63.77
2024-03-23T12:20:37.802Z,64.04
2024-03-23T12:26:47.686Z,64.96
2024-03-23T12:32:06.185Z,63.89
2024-03-23T12:37:58.853Z,61.54
2024-03-23T12:43:46.179Z,62.21
2024-03-23T12:49:46.595Z,59.98
2024-03-23T12:55:51.893Z,59.16
2024-03-23T13:01:49.014Z,60.93
2024-03-23T13:07:45.005Z,60.73
2024-03-23T13:13:34.394Z,63.60
2024-03-23T13:19:18.353Z,65.09
2024-03-23T13:25:22.793Z,65.30
2024-03-23T13:31:31.329Z,67.75
2024-03-23T13:37:48.055Z,70.75
2024-03-23T13:43:52.455Z,70.16
2024-03-23T13:50:28.737Z,69.98
2024-03-23T13:56:21.127Z,70.14
2024-03-23T14:01:37.203Z,68.07
2024-03-23T14:07:06.045Z,69.63
2024-03-23T14:13:03.647Z,70.98
2024-03-23T14:19:07.875Z,72.84
2024-03-23T14:25:32.611Z,78.53
2024-03-23T14:31:57.446Z,81.74
2024-03-23T14:37:55.289Z,83.70
2024-03-23T14:44:02.820Z,85.09
2024-03-23T14:50:11.720Z,85.74
2024-03-23T14:56:16.777Z,84.58
2024-03-23T15:02:14.009Z,82.27
2024-03-23T15:08:23.164Z,82.09
2024-03-23T15:14:47.408Z,82.05
2024-03-23T15:21:03.146Z,83.55
2024-03-23T15:26:33.961Z,83.95
2024-03-23T15:32:57.999Z,85.65
2024-03-23T15:39:02.229Z,86.46
2024-03-23T15:45:08.028Z,85.97
2024-03-23T15:51:33.403Z,86.78
2024-03-23T15:57:59.516Z,86.10
2024-03-23T16:03:36.226Z,83.98
2024-03-23T16:09:51.427Z,83.32
2024-03-23T16:15:57.073Z,83.21
2024-03-23T16:22:15.644Z,83.54
2024-03-23T16:28:28.398Z,82.89
2024-03-23T16:34:44.060Z,81.99
2024-03-23T16:40:51.024Z,81.49
2024-03-23T16:46:47.069Z,81.34
2024-03-23T16:53:00.463Z,81.64
2024-03-23T16:59:03.189Z,82.00
2024-03-23T17:05:16.412Z,82.37
2024-03-23T17:11:22.289Z,82.16
2024-03-23T17:17:45.173Z,82.08
2024-03-23T17:23:52.748Z,81.89
2024-03-23T17:30:17.861Z,80.95
2024-03-23T17:36:24.135Z,78.66
2024-03-23T17:42:44.662Z,79.20
2024-03-23T17:49:09.658Z,79.31
2024-03-23T17:55:26.268Z,79.16
2024-03-23T18:01:00.818Z,78.74
2024-03-23T18:06:05.044Z,79.12
2024-03-23T18:12:24.248Z,79.23
2024-03-23T18:17:31.453Z,79.70
2024-03-23T18:23:27.429Z,80.00
2024-03-23T18:28:52.819Z,80.17
2024-03-23T18:33:58.456Z,80.29
2024-03-23T18:39:38.561Z,80.91
2024-03-23T18:45:29.003Z,80.31
2024-03-23T18:51:12.042Z,80.77
2024-03-23T18:57:04.659Z,80.93
2024-03-23T19:03:21.443Z,81.33
2024-03-23T19:09:04.476Z,81.65
2024-03-23T19:15:22.318Z,81.52
2024-03-23T19:21:20.457Z,82.12
2024-03-23T19:27:40.931Z,81.77
2024-03-23T19:34:06.771Z,81.68
2024-03-23T19:40:31.396Z,81.63
2024-03-23T19:46:25.513Z,81.36
2024-03-23T19:52:52.357Z,81.62
2024-03-23T19:59:08.227Z,81.86
2024-03-23T20:05:33.718Z,82.30
2024-03-23T20:18:37.533Z,82.24
2024-03-23T20:24:47.625Z,82.72
2024-03-23T20:31:04.420Z,82.71
2024-03-23T20:37:33.366Z,83.19
2024-03-23T20:43:28.785Z,83.26
2024-03-23T20:49:51.733Z,83.39
2024-03-23T20:56:18.120Z,83.38
2024-03-23T21:02:32.159Z,83.82
2024-03-23T21:09:03.208Z,83.50
2024-03-23T21:15:28.854Z,83.88
2024-03-23T21:21:52.868Z,84.11
2024-03-23T21:28:22.545Z,84.58
2024-03-23T21:34:11.411Z,84.90
2024-03-23T21:40:17.010Z,85.64
2024-03-23T21:46:34.710Z,86.24
2024-03-23T21:52:34.506Z,86.03
2024-03-23T21:57:59.900Z,86.47
2024-03-23T22:04:05.514Z,86.56
2024-03-23T22:10:21.119Z,86.59
2024-03-23T22:16:27.624Z,86.19
2024-03-23T22:22:34.674Z,86.22
2024-03-23T22:28:12.527Z,86.22
2024-03-23T22:33:40.435Z,85.91
2024-03-23T22:39:08.084Z,86.03
2024-03-23T22:44:30.789Z,86.21
2024-03-23T22:50:22.326Z,86.19
2024-03-23T22:55:53.170Z,86.01
2024-03-23T23:01:36.635Z,86.18
2024-03-23T23:07:06.820Z,86.39
2024-03-23T23:12:43.925Z,86.60
2024-03-23T23:17:51.778Z,86.81
2024-03-23T23:23:23.905Z,86.71
2024-03-23T23:29:04.007Z,87.13
2024-03-23T23:34:41.288Z,86.93
2024-03-23T23:40:35.663Z,87.09
2024-03-23T23:46:02.828Z,87.19
2024-03-23T23:52:18.127Z,87.13
2024-03-23T23:58:22.328Z,87.14
